Time;durP1;ratioP1;P1;durP2;ratioP2;P2;SDS_P1;SDS_P2;PMS_P1;PMS_P2;Temp;Humidity;BMP_temperature;BMP_pressure;BME280_temperature;BME280_humidity;BME280_pressure;Samples;Min_cycle;Max_cycle;Signal;HPM_P1;HPM_P2
2021/06/10 00:01:47;;;;;;;8.83;7.30;;;20.40;99.90;;;20.70;57.54;101706.22;4887671;28;97267;-58
2021/06/10 00:04:13;;;;;;;8.73;7.37;;;20.40;99.90;;;20.71;57.89;101705.25;4887440;28;97313;-58
2021/06/10 00:06:39;;;;;;;9.13;7.77;;;20.30;99.90;;;20.66;57.65;101702.84;4900638;28;100608;-55
2021/06/10 00:09:05;;;;;;;10.30;7.90;;;20.30;99.90;;;20.64;58.17;101698.53;4887374;28;99518;-56
2021/06/10 00:11:31;;;;;;;10.63;7.67;;;20.30;99.90;;;20.63;57.97;101702.16;4891755;28;100211;-56
2021/06/10 00:13:58;;;;;;;8.47;7.67;;;20.30;99.90;;;20.62;58.02;101700.44;4887780;28;100569;-57
2021/06/10 00:16:23;;;;;;;9.60;8.00;;;20.30;99.90;;;20.60;57.48;101697.00;4888000;28;98146;-56
2021/06/10 00:18:51;;;;;;;9.20;8.40;;;20.20;99.90;;;20.59;57.78;101700.63;4882966;28;100937;-54
2021/06/10 00:21:18;;;;;;;8.60;7.80;;;20.20;99.90;;;20.57;57.88;101702.56;4888451;28;99469;-56
2021/06/10 00:23:44;;;;;;;8.93;8.00;;;20.20;99.90;;;20.53;57.83;101706.34;4883017;28;100321;-57
2021/06/10 00:26:10;;;;;;;8.53;7.63;;;20.20;99.90;;;20.52;58.05;101710.84;4886862;28;100272;-57
2021/06/10 00:28:36;;;;;;;8.50;7.70;;;20.20;99.90;;;20.50;58.21;101705.59;4886681;28;98542;-57
2021/06/10 00:31:03;;;;;;;9.43;7.90;;;20.20;99.90;;;20.47;58.15;101719.19;4888006;28;97247;-56
2021/06/10 00:33:29;;;;;;;11.20;8.00;;;20.10;99.90;;;20.44;58.12;101719.38;4885676;28;99507;-55
2021/06/10 00:35:56;;;;;;;8.97;8.00;;;20.10;99.90;;;20.43;58.20;101711.44;4892341;28;97909;-56
2021/06/10 00:38:22;;;;;;;9.53;8.33;;;20.10;99.90;;;20.40;58.17;101712.44;4890099;28;97423;-56
2021/06/10 00:40:48;;;;;;;10.00;8.27;;;20.10;99.90;;;20.38;58.19;101714.34;4888394;28;98328;-56
2021/06/10 00:43:14;;;;;;;8.63;7.93;;;20.00;99.90;;;20.33;58.09;101716.44;4878271;28;101092;-56
2021/06/10 00:45:41;;;;;;;8.17;7.47;;;20.00;99.90;;;20.32;58.31;101713.84;4881917;28;99164;-57
2021/06/10 00:48:07;;;;;;;7.63;7.03;;;19.90;99.90;;;20.30;58.17;101715.75;4888874;28;98926;-57
2021/06/10 00:50:45;;;;;;;8.20;7.40;;;19.90;99.90;;;20.27;58.49;101719.50;4886587;28;97935;-55
2021/06/10 00:53:25;;;;;;;7.93;7.13;;;19.90;99.90;;;20.21;58.43;101711.81;4888366;28;102211;-56
2021/06/10 00:56:05;;;;;;;8.03;7.23;;;19.80;99.90;;;20.18;57.77;101712.00;4885834;28;99309;-56
2021/06/10 00:58:32;;;;;;;9.50;7.47;;;19.80;99.90;;;20.15;56.68;101709.50;4905290;28;99341;-56
2021/06/10 01:00:58;;;;;;;8.10;7.30;;;19.80;99.90;;;20.15;57.35;101712.19;4888151;28;98843;-55
2021/06/10 01:03:24;;;;;;;8.57;7.80;;;19.80;99.90;;;20.16;57.43;101711.22;4885624;28;98543;-56
2021/06/10 01:05:57;;;;;;;8.40;7.27;;;19.80;99.90;;;20.15;57.97;101712.19;4881877;28;99601;-54
2021/06/10 01:09:13;;;;;;;8.40;7.57;;;19.80;99.90;;;20.14;58.08;101707.78;4891425;28;97353;-57
2021/06/10 01:12:00;;;;;;;8.00;7.20;;;19.70;99.90;;;20.11;58.49;101705.28;4893039;28;98812;-54
2021/06/10 01:14:38;;;;;;;8.37;7.47;;;19.70;99.90;;;20.04;58.77;101703.91;4890426;28;98744;-57
2021/06/10 01:17:05;;;;;;;8.23;7.40;;;19.60;99.90;;;20.00;58.99;101708.59;4893678;28;103163;-58
2021/06/10 01:19:50;;;;;;;8.43;7.13;;;19.60;99.90;;;20.01;59.02;101706.78;4888620;28;99774;-58
2021/06/10 01:22:25;;;;;;;8.37;7.57;;;19.60;99.90;;;20.02;59.06;101705.81;4897141;28;100376;-57
2021/06/10 01:25:03;;;;;;;7.90;7.20;;;19.60;99.90;;;20.00;58.19;101707.72;4884834;28;100709;-57
2021/06/10 01:27:34;;;;;;;8.43;7.63;;;19.60;99.90;;;19.99;58.76;101706.00;4922578;28;99633;-57
2021/06/10 01:30:14;;;;;;;8.60;7.80;;;19.60;99.90;;;19.97;58.64;101702.56;4908412;28;99992;-51
2021/06/10 01:32:53;;;;;;;9.03;7.63;;;19.60;99.90;;;20.02;59.20;101717.41;4889241;28;98176;-54
2021/06/10 01:35:24;;;;;;;8.07;7.47;;;19.60;99.90;;;20.03;59.36;101705.72;4924223;28;100358;-56
2021/06/10 01:37:52;;;;;;;7.87;6.73;;;19.60;99.90;;;20.05;59.02;101700.28;4893690;28;100244;-56
2021/06/10 01:40:22;;;;;;;7.80;7.10;;;19.70;99.90;;;20.07;58.51;101698.38;4900003;28;96846;-56
2021/06/10 01:42:49;;;;;;;7.83;7.00;;;19.70;99.90;;;20.07;58.83;101698.38;4907901;28;98837;-57
2021/06/10 01:45:16;;;;;;;8.03;7.23;;;19.70;99.90;;;20.08;58.88;101700.09;4920490;28;102775;-52
2021/06/10 01:47:44;;;;;;;7.67;6.97;;;19.70;99.90;;;20.08;58.48;101705.44;4892286;28;99588;-57
2021/06/10 01:50:13;;;;;;;7.73;7.00;;;19.70;99.90;;;20.09;58.70;101702.66;4927070;28;97901;-55
2021/06/10 01:52:42;;;;;;;7.63;6.83;;;19.70;99.90;;;20.11;58.76;101694.56;4905487;28;97517;-56
2021/06/10 01:55:15;;;;;;;7.87;7.13;;;19.70;99.90;;;20.14;59.06;101699.75;4918298;28;98744;-54
2021/06/10 01:57:43;;;;;;;8.00;7.20;;;19.70;99.90;;;20.08;58.94;101689.38;4907930;28;99419;-55
2021/06/10 02:00:14;;;;;;;7.70;7.00;;;19.70;99.90;;;20.08;59.19;101689.38;4915764;28;97077;-54
2021/06/10 02:02:40;;;;;;;7.90;7.20;;;19.70;99.90;;;20.09;59.03;101688.41;4910694;28;97630;-58
2021/06/10 02:05:09;;;;;;;9.10;7.20;;;19.70;99.90;;;20.07;59.49;101682.28;4908655;28;97635;-54
2021/06/10 02:07:40;;;;;;;9.80;7.93;;;19.70;99.90;;;20.02;59.43;101689.75;4905527;28;97349;-59
2021/06/10 02:10:11;;;;;;;8.77;7.70;;;19.60;99.90;;;20.01;59.29;101685.34;4909589;28;97868;-55
2021/06/10 02:12:37;;;;;;;10.50;8.77;;;19.60;99.90;;;19.97;59.70;101686.50;4914033;28;96812;-56
2021/06/10 02:15:09;;;;;;;15.80;8.57;;;19.60;99.90;;;19.95;59.38;101680.34;4928648;28;100499;-56
2021/06/10 02:17:36;;;;;;;9.30;8.30;;;19.50;99.90;;;19.91;59.36;101688.56;4926285;28;97387;-60
2021/06/10 02:20:05;;;;;;;15.80;9.63;;;19.50;99.90;;;19.89;59.32;101673.53;4934240;28;98661;-54
2021/06/10 02:22:36;;;;;;;16.30;9.20;;;19.50;99.90;;;19.89;59.41;101677.06;4911951;28;97356;-51
2021/06/10 02:25:03;;;;;;;12.47;10.07;;;19.50;99.90;;;19.91;59.36;101682.34;4906489;28;104921;-54
2021/06/10 02:27:29;;;;;;;12.30;9.97;;;19.50;99.90;;;19.90;59.92;101681.47;4916532;28;99043;-55
2021/06/10 02:29:55;;;;;;;11.97;9.33;;;19.50;99.90;;;19.89;60.00;101678.91;4900698;28;97102;-56
2021/06/10 02:32:21;;;;;;;10.53;8.93;;;19.50;99.90;;;19.90;59.91;101676.13;4917601;28;96970;-56
2021/06/10 02:34:47;;;;;;;11.87;9.37;;;19.50;99.90;;;19.89;59.89;101674.41;4903408;28;97518;-56
2021/06/10 02:37:17;;;;;;;11.87;10.33;;;19.40;99.90;;;19.90;59.82;101675.25;4919070;28;98239;-55
2021/06/10 02:39:46;;;;;;;11.67;10.57;;;19.50;99.90;;;19.82;60.82;101678.41;4900887;28;97192;-55
2021/06/10 02:42:14;;;;;;;12.10;11.00;;;19.40;99.90;;;19.77;60.77;101685.81;4912274;28;97181;-56
2021/06/10 02:44:45;;;;;;;12.63;11.53;;;19.30;99.90;;;19.74;61.41;101686.00;4904611;28;102631;-53
2021/06/10 02:47:12;;;;;;;14.30;12.23;;;19.30;99.90;;;19.76;60.66;101680.56;4899139;28;98737;-57
2021/06/10 02:49:44;;;;;;;12.27;11.07;;;19.30;99.90;;;19.80;60.55;101680.28;4909951;28;98318;-55
2021/06/10 02:52:13;;;;;;;11.70;10.60;;;19.40;99.90;;;19.81;60.55;101676.66;4900489;28;104039;-53
2021/06/10 02:54:39;;;;;;;13.40;12.00;;;19.40;99.90;;;19.76;61.10;101678.75;4909862;28;97147;-53
2021/06/10 02:57:07;;;;;;;13.57;12.17;;;19.40;99.90;;;19.72;60.73;101679.00;4907586;28;98178;-58
2021/06/10 02:59:35;;;;;;;14.20;12.90;;;19.30;99.90;;;19.73;60.68;101684.28;4907259;28;97047;-55
2021/06/10 03:02:02;;;;;;;12.87;11.77;;;19.30;99.90;;;19.72;60.87;101682.56;4903574;28;98291;-54
2021/06/10 03:04:29;;;;;;;12.67;11.57;;;19.30;99.90;;;19.74;61.04;101680.66;4909723;28;98758;-57
2021/06/10 03:06:57;;;;;;;13.13;11.83;;;19.30;99.90;;;19.69;61.10;101677.38;4898108;28;100297;-54
2021/06/10 03:09:23;;;;;;;15.53;13.87;;;19.30;99.90;;;19.66;61.19;101677.53;4911736;28;97034;-56
2021/06/10 03:11:51;;;;;;;16.33;14.80;;;19.30;99.90;;;19.60;61.57;101676.09;4903036;28;97252;-55
2021/06/10 03:14:17;;;;;;;15.73;14.23;;;19.20;99.90;;;19.58;61.62;101680.66;4914915;28;97737;-55
2021/06/10 03:16:46;;;;;;;15.67;14.23;;;19.20;99.90;;;19.56;61.90;101681.72;4905284;28;106878;-56
2021/06/10 03:19:15;;;;;;;15.93;14.33;;;19.10;99.90;;;19.56;61.52;101681.72;4914627;28;97267;-54
2021/06/10 03:21:41;;;;;;;16.97;15.27;;;19.20;99.90;;;19.56;62.00;101681.72;4902836;28;99455;-57
2021/06/10 03:24:08;;;;;;;16.13;14.53;;;19.20;99.90;;;19.56;62.29;101676.38;4912818;28;99667;-55
2021/06/10 03:26:36;;;;;;;16.53;14.23;;;19.20;99.90;;;19.56;62.22;101681.72;4893958;28;98843;-57
2021/06/10 03:29:05;;;;;;;15.40;14.00;;;19.20;99.90;;;19.52;62.29;101680.97;4907183;28;98400;-57
2021/06/10 03:31:31;;;;;;;17.63;15.83;;;19.10;99.90;;;19.48;62.53;101674.06;4908360;28;98839;-56
2021/06/10 03:33:58;;;;;;;16.27;14.67;;;19.10;99.90;;;19.48;62.52;101681.25;4908054;28;97690;-55
2021/06/10 03:36:25;;;;;;;19.17;16.47;;;19.00;99.90;;;19.48;62.31;101681.25;4888506;28;100167;-55
2021/06/10 03:38:52;;;;;;;18.70;16.87;;;19.00;99.90;;;19.48;62.26;101684.78;4909749;28;106225;-56
2021/06/10 03:41:20;;;;;;;17.00;15.40;;;19.10;99.90;;;19.46;62.26;101686.69;4914022;28;97240;-56
2021/06/10 03:43:47;;;;;;;20.00;18.00;;;19.00;99.90;;;19.41;63.01;101687.91;4903319;28;97237;-55
2021/06/10 03:46:14;;;;;;;19.93;16.80;;;19.00;99.90;;;19.37;63.18;101691.69;4901155;28;99613;-56
2021/06/10 03:48:41;;;;;;;18.67;16.87;;;18.90;99.90;;;19.42;62.56;101689.63;4904572;28;97428;-57
2021/06/10 03:51:16;;;;;;;18.57;16.70;;;18.90;99.90;;;19.52;61.96;101685.47;4915590;28;97419;-55
2021/06/10 03:53:47;;;;;;;19.43;17.60;;;19.00;99.90;;;19.49;62.86;101680.28;4902547;28;100374;-55
2021/06/10 03:56:13;;;;;;;20.13;18.23;;;19.00;99.90;;;19.46;63.09;101685.81;4907777;28;96764;-55
2021/06/10 03:58:39;;;;;;;21.80;19.77;;;19.00;99.90;;;19.42;62.90;101685.13;4903603;28;97277;-56
2021/06/10 04:01:05;;;;;;;21.30;19.30;;;19.00;99.90;;;19.40;63.51;101686.19;4914681;28;97514;-57
2021/06/10 04:03:31;;;;;;;20.73;18.90;;;18.90;99.90;;;19.40;63.48;101686.19;4907982;28;100670;-56
2021/06/10 04:05:57;;;;;;;21.03;19.27;;;18.90;99.90;;;19.43;62.75;101680.66;4925343;28;99353;-55
2021/06/10 04:08:23;;;;;;;20.93;19.00;;;18.90;99.90;;;19.52;62.43;101680.09;4892154;28;97318;-56
2021/06/10 04:10:50;;;;;;;21.13;19.20;;;19.00;99.90;;;19.47;63.09;101679.50;4925407;28;111122;-56
2021/06/10 04:13:15;;;;;;;21.00;19.13;;;19.00;99.90;;;19.51;62.31;101673.03;4903592;28;99244;-57
2021/06/10 04:15:41;;;;;;;21.17;19.07;;;19.00;99.90;;;19.60;61.73;101675.22;4911805;28;100254;-57
2021/06/10 04:18:07;;;;;;;22.13;19.83;;;19.10;99.90;;;19.64;61.66;101676.75;4900380;28;99126;-56
2021/06/10 04:20:33;;;;;;;22.40;20.20;;;19.20;99.90;;;19.67;61.83;101667.69;4914726;28;96905;-56
2021/06/10 04:22:59;;;;;;;22.10;19.90;;;19.20;99.90;;;19.63;62.42;101668.81;4912627;28;97160;-56
2021/06/10 04:25:25;;;;;;;21.83;19.60;;;19.20;99.90;;;19.69;61.64;101672.03;4908832;28;98613;-57
2021/06/10 04:27:51;;;;;;;22.03;20.07;;;19.20;99.90;;;19.77;61.19;101669.75;4908858;28;99550;-56
2021/06/10 04:30:18;;;;;;;21.03;18.83;;;19.30;99.90;;;19.83;61.02;101669.41;4907973;28;97033;-55
2021/06/10 04:32:46;;;;;;;22.23;20.03;;;19.40;99.90;;;19.84;61.10;101673.81;4905410;28;100102;-56
2021/06/10 04:35:14;;;;;;;23.13;20.90;;;19.40;99.90;;;19.81;61.81;101671.28;4906985;28;99212;-56
2021/06/10 04:37:40;;;;;;;22.20;19.97;;;19.30;99.90;;;19.82;61.48;101673.06;4909838;28;97200;-56
2021/06/10 04:40:07;;;;;;;21.50;19.60;;;19.30;99.90;;;19.85;61.45;101683.56;4913740;28;98428;-55
2021/06/10 04:42:33;;;;;;;21.37;19.37;;;19.30;99.90;;;19.85;61.03;101683.56;4911111;28;97488;-56
2021/06/10 04:44:59;;;;;;;22.13;19.40;;;19.30;99.90;;;19.92;60.55;101684.91;4900865;28;105709;-54
2021/06/10 04:47:25;;;;;;;11.90;10.77;;;19.40;99.90;;;20.01;59.75;101693.38;4913953;28;106232;-56
2021/06/10 04:49:50;;;;;;;20.20;18.40;;;19.50;99.90;;;20.08;59.79;101687.56;4910900;28;98955;-57
2021/06/10 04:52:16;;;;;;;19.97;18.07;;;19.60;99.90;;;20.12;59.83;101691.81;4908993;28;107029;-56
2021/06/10 04:54:42;;;;;;;19.93;18.03;;;19.70;99.90;;;20.17;59.45;101687.03;4907447;28;107637;-56
2021/06/10 04:57:08;;;;;;;16.50;15.00;;;19.70;99.90;;;20.22;59.39;101697.47;4910381;28;97515;-53
2021/06/10 04:59:34;;;;;;;20.27;18.17;;;19.70;99.90;;;20.28;58.94;101693.56;4918930;28;97306;-56
2021/06/10 05:02:01;;;;;;;18.03;16.40;;;19.80;99.90;;;20.33;58.53;101695.00;4906110;28;101811;-55
2021/06/10 05:04:27;;;;;;;19.57;17.67;;;19.90;99.90;;;20.39;58.46;101704.47;4913745;28;97659;-57
2021/06/10 05:06:53;;;;;;;18.63;17.03;;;20.00;99.90;;;20.43;58.62;101703.41;4909344;28;97296;-55
2021/06/10 05:09:20;;;;;;;19.17;17.13;;;20.00;99.90;;;20.45;58.40;101699.66;4913233;28;96944;-56
2021/06/10 05:11:46;;;;;;;9.03;8.33;;;20.00;99.90;;;20.49;58.07;101701.19;4883295;28;102393;-54
2021/06/10 05:14:11;;;;;;;8.97;8.17;;;20.10;99.90;;;20.56;58.10;101700.84;4921624;28;97488;-56
2021/06/10 05:16:37;;;;;;;20.30;17.77;;;20.20;99.90;;;20.60;57.94;101697.00;4911126;28;104924;-57
2021/06/10 05:19:03;;;;;;;16.97;15.57;;;20.30;99.90;;;20.64;57.72;101693.16;4914270;28;97160;-56
2021/06/10 05:21:29;;;;;;;14.90;13.63;;;20.30;99.90;;;20.69;57.50;101710.72;4911086;28;111743;-57
2021/06/10 05:23:55;;;;;;;19.73;17.83;;;20.40;99.90;;;20.71;57.70;101699.91;4908425;28;108426;-57
2021/06/10 05:26:21;;;;;;;11.80;10.67;;;20.40;99.90;;;20.74;57.34;101700.56;4916156;28;100613;-55
2021/06/10 05:28:47;;;;;;;20.13;18.23;;;20.50;99.90;;;20.77;57.54;101699.50;4896412;28;97734;-57
2021/06/10 05:31:13;;;;;;;20.13;18.20;;;20.50;99.90;;;20.79;57.14;101703.81;4913772;28;99234;-57
2021/06/10 05:33:39;;;;;;;12.17;10.97;;;20.50;99.90;;;20.82;56.83;101700.06;4911204;28;99250;-57
2021/06/10 05:36:06;;;;;;;18.00;16.20;;;20.50;99.90;;;20.86;57.13;101692.72;4912726;28;96889;-56
2021/06/10 05:38:33;;;;;;;16.10;14.63;;;20.60;99.90;;;20.87;57.04;101697.97;4914319;28;96864;-56
2021/06/10 05:40:59;;;;;;;9.77;9.00;;;20.60;99.90;;;20.89;56.92;101696.06;4914849;28;99075;-57
2021/06/10 05:43:25;;;;;;;21.17;18.80;;;20.60;99.90;;;20.90;57.22;101688.88;4909076;28;97463;-57
2021/06/10 05:45:52;;;;;;;8.73;8.03;;;20.60;99.90;;;20.95;56.49;101687.63;4909416;28;103006;-57
2021/06/10 05:48:19;;;;;;;27.43;24.83;;;20.70;99.90;;;20.99;56.87;101697.22;4910173;28;97234;-57
2021/06/10 05:50:48;;;;;;;14.13;12.90;;;20.80;99.90;;;21.02;56.34;101707.75;4910581;28;99163;-57
2021/06/10 05:53:17;;;;;;;21.70;19.23;;;20.80;99.90;;;21.04;56.90;101708.50;4915311;28;97185;-57
2021/06/10 05:55:45;;;;;;;17.13;15.50;;;20.90;99.90;;;21.06;56.35;101711.94;4911035;28;97134;-57
2021/06/10 05:58:12;;;;;;;19.23;17.30;;;20.80;99.90;;;21.09;56.74;101711.75;4909638;28;97539;-56
2021/06/10 06:00:39;;;;;;;19.03;17.10;;;20.90;99.90;;;21.08;56.15;101710.03;4905820;28;98827;-57
2021/06/10 06:03:06;;;;;;;21.90;19.73;;;20.90;99.90;;;21.11;56.42;101717.00;4916738;28;99216;-56
2021/06/10 06:05:33;;;;;;;21.43;19.33;;;20.90;99.90;;;21.13;55.92;101715.13;4912534;28;97181;-56
2021/06/10 06:07:59;;;;;;;7.87;7.27;;;20.90;99.90;;;21.17;55.67;101710.41;4906834;28;99172;-57
2021/06/10 06:10:29;;;;;;;7.27;6.70;;;20.90;99.90;;;21.21;55.37;101703.91;4913489;28;98470;-57
2021/06/10 06:12:58;;;;;;;12.90;11.63;;;21.00;99.90;;;21.26;55.23;101712.53;4906855;28;99775;-57
2021/06/10 06:15:25;;;;;;;15.23;13.63;;;21.10;99.90;;;21.29;55.17;101707.00;4909670;28;98111;-57
2021/06/10 06:17:51;;;;;;;19.47;17.47;;;21.20;99.90;;;21.31;55.32;101711.31;4910345;28;103674;-57
2021/06/10 06:20:20;;;;;;;21.50;17.57;;;21.20;99.90;;;21.29;55.89;101707.00;4913047;28;99201;-57
2021/06/10 06:22:46;;;;;;;22.27;17.97;;;21.10;99.90;;;21.28;54.89;101716.00;4908160;28;103292;-57
2021/06/10 06:25:14;;;;;;;19.90;16.70;;;21.00;99.90;;;21.23;55.75;101708.19;4903222;28;97376;-57
2021/06/10 06:27:41;;;;;;;18.87;17.07;;;21.00;99.90;;;21.23;55.22;101707.34;4925530;28;96999;-57
2021/06/10 06:30:09;;;;;;;17.90;15.90;;;20.90;99.90;;;21.23;55.55;101712.69;4911475;28;103767;-56
2021/06/10 06:32:36;;;;;;;10.97;9.87;;;20.90;99.90;;;21.26;55.33;101712.53;4911692;28;97216;-57
2021/06/10 06:35:04;;;;;;;10.13;9.23;;;21.10;99.90;;;21.31;55.08;101716.66;4920583;28;99405;-57
2021/06/10 06:37:30;;;;;;;14.37;12.93;;;21.20;99.90;;;21.33;55.35;101720.09;4911844;28;100510;-57
2021/06/10 06:39:56;;;;;;;17.47;15.67;;;21.20;99.90;;;21.33;56.25;101713.88;4894172;28;103832;-55
2021/06/10 06:42:22;;;;;;;20.17;18.03;;;21.10;99.90;;;21.30;56.50;101720.31;4895300;28;97039;-57
2021/06/10 06:44:48;;;;;;;20.17;17.50;;;21.10;99.90;;;21.28;56.08;101726.75;4907148;28;97482;-57
2021/06/10 06:47:14;;;;;;;19.67;17.60;;;21.00;99.90;;;21.26;55.45;101718.75;4925410;28;96928;-56
2021/06/10 06:49:40;;;;;;;18.57;16.50;;;21.00;99.90;;;21.27;54.68;101715.16;4905679;28;99013;-57
2021/06/10 06:52:06;;;;;;;17.77;15.87;;;21.10;99.90;;;21.30;54.51;101724.81;4911060;28;98192;-55
2021/06/10 06:54:32;;;;;;;18.10;15.10;;;21.10;99.90;;;21.32;54.75;101714.84;4893746;28;97542;-55
2021/06/10 06:56:58;;;;;;;13.47;11.70;;;21.10;99.90;;;21.34;54.67;101721.81;4906524;28;97535;-57
2021/06/10 06:59:23;;;;;;;6.63;6.13;;;21.20;99.90;;;21.37;54.92;101718.94;4909162;28;112588;-57
2021/06/10 07:01:49;;;;;;;6.70;6.10;;;21.30;99.90;;;21.43;54.79;101725.75;4906718;28;98033;-58
2021/06/10 07:04:15;;;;;;;6.73;6.07;;;21.40;99.90;;;21.46;54.52;101720.19;4913556;28;97079;-58
2021/06/10 07:06:41;;;;;;;6.37;5.87;;;21.40;99.90;;;21.49;54.54;101730.72;4909183;28;98576;-56
2021/06/10 07:09:07;;;;;;;9.10;8.17;;;21.50;99.90;;;21.55;54.16;101730.31;4911383;28;98475;-58
2021/06/10 07:11:34;;;;;;;19.47;17.47;;;21.60;99.90;;;21.59;53.56;101728.31;4884075;28;99069;-58
2021/06/10 07:14:02;;;;;;;6.87;6.00;;;21.60;99.90;;;21.61;54.16;101731.75;4915650;28;97506;-57
2021/06/10 07:16:28;;;;;;;6.47;5.97;;;21.60;99.90;;;21.60;53.99;101733.56;4901836;28;99164;-58
2021/06/10 07:18:54;;;;;;;6.13;5.63;;;21.70;99.90;;;21.62;54.03;101734.34;4886662;28;100303;-58
2021/06/10 07:21:20;;;;;;;6.23;5.57;;;21.70;99.90;;;21.67;53.87;101739.41;4892282;28;97821;-57
2021/06/10 07:23:46;;;;;;;15.63;13.97;;;21.70;99.90;;;21.69;53.83;101743.69;4908162;28;103506;-57
2021/06/10 07:26:12;;;;;;;5.80;5.30;;;21.70;99.90;;;21.69;53.81;101743.69;4909831;28;105879;-57
2021/06/10 07:28:38;;;;;;;5.20;4.80;;;21.70;99.90;;;21.71;53.65;101734.72;4904242;28;97384;-57
2021/06/10 07:31:04;;;;;;;24.47;20.03;;;21.80;99.90;;;21.78;53.58;101733.34;4913601;28;98091;-56
2021/06/10 07:33:29;;;;;;;7.67;6.90;;;21.80;99.90;;;21.80;53.53;101739.47;4909454;28;97205;-57
2021/06/10 07:35:55;;;;;;;23.53;20.13;;;21.80;99.90;;;21.81;53.14;101735.81;4889489;28;104021;-57
2021/06/10 07:38:21;;;;;;;24.50;21.50;;;21.90;99.90;;;21.84;53.10;101743.66;4905121;28;101075;-58
2021/06/10 07:40:47;;;;;;;26.63;20.60;;;21.90;99.90;;;21.83;52.57;101741.94;4908122;28;117846;-58
2021/06/10 07:43:13;;;;;;;24.20;20.67;;;21.80;99.90;;;21.85;51.92;101731.97;4911061;28;97233;-57
2021/06/10 07:45:39;;;;;;;21.57;19.27;;;21.80;99.90;;;21.88;52.55;101731.78;4910295;28;97771;-56
2021/06/10 07:48:07;;;;;;;27.60;20.30;;;21.90;99.90;;;21.92;51.42;101734.13;4902908;28;100372;-56
2021/06/10 07:50:33;;;;;;;24.97;19.47;;;21.90;99.90;;;21.94;52.14;101736.72;4913407;28;98309;-56
2021/06/10 07:52:59;;;;;;;20.13;17.90;;;21.90;99.90;;;21.95;52.04;101738.44;4907647;28;97396;-57
2021/06/10 07:55:25;;;;;;;9.17;8.27;;;21.90;99.90;;;21.95;52.83;101738.44;4932942;28;97304;-56
2021/06/10 07:57:51;;;;;;;10.90;9.67;;;22.00;99.90;;;21.94;53.01;101734.03;4902246;28;99904;-56
2021/06/10 08:00:18;;;;;;;13.87;12.47;;;22.00;99.90;;;21.98;51.73;101728.34;4914132;28;97482;-57
2021/06/10 08:02:44;;;;;;;6.30;5.70;;;22.00;99.90;;;21.96;53.06;101734.78;4903525;28;97138;-57
2021/06/10 08:05:11;;;;;;;20.13;10.10;;;22.00;99.90;;;21.98;50.50;101743.59;4911542;28;104465;-55
2021/06/10 08:07:42;;;;;;;9.67;8.03;;;22.00;99.50;;;21.99;52.94;101734.63;4905917;28;101317;-58
2021/06/10 08:10:12;;;;;;;7.90;6.13;;;22.00;99.90;;;21.99;53.04;101734.63;4916215;28;96743;-57
2021/06/10 08:12:38;;;;;;;7.13;6.43;;;22.10;99.90;;;22.00;52.85;101735.47;4906553;28;97340;-56
2021/06/10 08:15:05;;;;;;;9.27;8.27;;;22.10;99.90;;;22.03;52.45;101736.13;4926914;28;97294;-56
2021/06/10 08:17:34;;;;;;;14.83;9.90;;;22.10;99.90;;;22.11;48.02;101739.16;4913746;28;98669;-57
2021/06/10 08:20:00;;;;;;;6.17;5.63;;;22.10;98.00;;;22.07;52.68;101737.66;4911851;28;97107;-57
2021/06/10 08:22:26;;;;;;;6.87;6.17;;;22.20;99.90;;;22.07;52.79;101743.03;4914161;28;98400;-57
2021/06/10 08:24:52;;;;;;;6.37;5.80;;;22.10;99.90;;;22.03;52.74;101741.50;4899675;28;102762;-57
2021/06/10 08:27:17;;;;;;;13.97;10.90;;;22.10;99.90;;;22.09;52.62;101738.41;4913707;28;103845;-57
2021/06/10 08:29:43;;;;;;;14.83;11.00;;;22.10;99.90;;;22.13;50.14;101731.91;4884488;28;99151;-57
2021/06/10 08:32:09;;;;;;;16.23;13.13;;;22.20;99.40;;;22.19;50.99;101742.22;4914272;28;99321;-57
2021/06/10 08:34:35;;;;;;;20.67;14.30;;;22.20;99.90;;;22.20;51.21;101724.28;4906991;28;97440;-56
2021/06/10 08:37:01;;;;;;;10.27;9.17;;;22.30;99.90;;;22.20;52.34;101732.34;4909607;28;103201;-57
2021/06/10 08:39:28;;;;;;;16.47;12.00;;;22.30;99.90;;;22.19;52.63;101730.59;4916724;28;98327;-56
2021/06/10 08:41:55;;;;;;;19.20;15.60;;;22.30;99.90;;;22.22;51.76;101731.25;4908597;28;97467;-57
2021/06/10 08:44:22;;;;;;;18.57;14.40;;;22.30;99.90;;;22.24;49.65;101728.47;4915858;28;97395;-57
2021/06/10 08:46:50;;;;;;;15.63;14.03;;;22.30;98.80;;;22.34;49.21;101731.41;4887881;28;99000;-54
2021/06/10 08:49:17;;;;;;;17.43;13.27;;;22.40;98.50;;;22.33;50.22;101725.16;4911203;28;99190;-56
2021/06/10 08:51:43;;;;;;;24.10;13.93;;;22.40;99.00;;;22.37;50.49;101728.50;4908545;28;97276;-57
2021/06/10 08:54:08;;;;;;;14.00;12.50;;;22.50;98.60;;;22.42;48.86;101729.03;4916394;28;97546;-57
2021/06/10 08:56:34;;;;;;;13.23;11.37;;;22.50;98.20;;;22.43;50.67;101728.09;4919184;28;97445;-56
2021/06/10 08:59:00;;;;;;;14.80;12.23;;;22.50;99.10;;;22.44;49.68;101730.66;4908801;28;97368;-57
2021/06/10 09:01:27;;;;;;;14.93;10.33;;;22.50;98.60;;;22.48;49.89;101731.31;4901290;28;97487;-57
2021/06/10 09:03:54;;;;;;;12.57;10.07;;;22.60;98.10;;;22.55;49.97;101732.59;4914499;28;97508;-55
2021/06/10 09:06:20;;;;;;;11.57;10.13;;;22.60;98.00;;;22.59;46.60;101734.13;4896446;28;99496;-57
2021/06/10 09:08:49;;;;;;;9.97;7.53;;;22.70;96.40;;;22.62;48.84;101736.59;4909137;28;99687;-55
2021/06/10 09:11:16;;;;;;;12.93;8.17;;;22.70;97.20;;;22.61;47.58;101739.41;4910422;28;96867;-57
2021/06/10 09:13:50;;;;;;;8.90;7.30;;;22.70;97.00;;;22.62;50.35;101733.91;4909866;28;97056;-56
2021/06/10 09:16:37;;;;;;;12.80;7.90;;;22.70;98.60;;;22.64;49.86;101737.34;4913387;28;98757;-56
2021/06/10 09:19:13;;;;;;;8.27;7.00;;;22.70;97.90;;;22.46;51.26;101739.50;4913335;28;102492;-56
2021/06/10 09:21:48;;;;;;;9.13;7.10;;;22.60;99.20;;;22.35;51.51;101741.19;4911933;28;97265;-56
2021/06/10 09:24:31;;;;;;;9.17;7.90;;;22.50;99.40;;;22.36;51.52;101740.22;4916235;28;97358;-57
2021/06/10 09:27:12;;;;;;;7.43;6.10;;;22.40;99.50;;;22.51;48.44;101739.16;4909643;28;97145;-57
2021/06/10 09:29:51;;;;;;;9.07;5.60;;;22.60;98.00;;;22.60;49.41;101741.22;4909766;28;98752;-59
2021/06/10 09:32:30;;;;;;;6.60;5.90;;;22.70;98.20;;;22.56;50.80;101739.69;4912290;28;97285;-58
2021/06/10 09:35:06;;;;;;;9.00;6.43;;;22.70;98.70;;;22.50;50.96;101745.50;4909956;28;103764;-57
2021/06/10 09:37:42;;;;;;;7.57;5.80;;;22.60;99.00;;;22.65;45.64;101744.44;4932315;28;97602;-56
2021/06/10 09:40:18;;;;;;;9.50;6.70;;;22.70;95.70;;;22.69;47.56;101747.78;4908609;28;104120;-54
2021/06/10 09:42:45;;;;;;;11.07;6.53;;;22.80;95.40;;;22.74;47.54;101748.34;4927138;28;97138;-57
2021/06/10 09:45:19;;;;;;;10.43;7.03;;;22.90;95.90;;;22.70;49.19;101744.13;4915866;28;98306;-57
2021/06/10 09:47:51;;;;;;;10.93;7.17;;;22.80;97.20;;;22.69;48.84;101745.09;4917667;28;97570;-57
2021/06/10 09:50:35;;;;;;;7.83;6.63;;;22.80;97.40;;;22.83;45.18;101753.09;4928714;28;98971;-56
2021/06/10 09:53:16;;;;;;;11.07;6.83;;;22.90;95.50;;;22.95;44.82;101754.94;4911450;28;98675;-57
2021/06/10 09:55:58;;;;;;;9.97;6.60;;;23.10;94.70;;;22.99;43.86;101758.25;4906657;28;97590;-56
2021/06/10 09:58:35;;;;;;;6.23;4.10;;;23.10;94.00;;;22.89;49.51;101758.06;4920372;28;97879;-55
2021/06/10 10:01:14;;;;;;;9.97;5.43;;;23.10;97.70;;;22.81;49.01;101755.84;4909966;28;103546;-57
2021/06/10 10:03:46;;;;;;;10.00;6.27;;;23.00;97.60;;;22.76;49.95;101751.78;4913914;28;97244;-55
2021/06/10 10:06:27;;;;;;;6.67;4.13;;;22.90;97.80;;;22.85;48.51;101756.53;4914837;28;97448;-56
2021/06/10 10:09:00;;;;;;;5.80;4.20;;;23.00;97.10;;;22.82;46.84;101752.22;4905794;28;98942;-54